地図

経路データ

SID SEASON NUMBER BASIN SUBBASIN NAME ISO_TIME NATURE LAT LON WMO_WIND WMO_PRES WMO_AGENCY TRACK_TYPE DIST2LAND LANDFALL IFLAG USA_AGENCY USA_ATCF_ID USA_LAT USA_LON USA_RECORD USA_STATUS USA_WIND USA_PRES USA_SSHS USA_R34_NE USA_R34_SE USA_R34_SW USA_R34_NW USA_R50_NE USA_R50_SE USA_R50_SW USA_R50_NW USA_R64_NE USA_R64_SE USA_R64_SW USA_R64_NW USA_POCI USA_ROCI USA_RMW USA_EYE TOKYO_LAT TOKYO_LON TOKYO_GRADE TOKYO_WIND TOKYO_PRES TOKYO_R50_DIR TOKYO_R50_LONG TOKYO_R50_SHORT TOKYO_R30_DIR TOKYO_R30_LONG TOKYO_R30_SHORT TOKYO_LAND CMA_LAT CMA_LON CMA_CAT CMA_WIND CMA_PRES HKO_LAT HKO_LON HKO_CAT HKO_WIND HKO_PRES NEWDELHI_LAT NEWDELHI_LON NEWDELHI_GRADE NEWDELHI_WIND NEWDELHI_PRES NEWDELHI_CI NEWDELHI_DP NEWDELHI_POCI REUNION_LAT REUNION_LON REUNION_TYPE REUNION_WIND REUNION_PRES REUNION_TNUM REUNION_CI REUNION_RMW REUNION_R34_NE REUNION_R34_SE REUNION_R34_SW REUNION_R34_NW REUNION_R50_NE REUNION_R50_SE REUNION_R50_SW REUNION_R50_NW REUNION_R64_NE REUNION_R64_SE REUNION_R64_SW REUNION_R64_NW BOM_LAT BOM_LON BOM_TYPE BOM_WIND BOM_PRES BOM_TNUM BOM_CI BOM_RMW BOM_R34_NE BOM_R34_SE BOM_R34_SW BOM_R34_NW BOM_R50_NE BOM_R50_SE BOM_R50_SW BOM_R50_NW BOM_R64_NE BOM_R64_SE BOM_R64_SW BOM_R64_NW BOM_ROCI BOM_POCI BOM_EYE BOM_POS_METHOD BOM_PRES_METHOD NADI_LAT NADI_LON NADI_CAT NADI_WIND NADI_PRES WELLINGTON_LAT WELLINGTON_LON WELLINGTON_WIND WELLINGTON_PRES DS824_LAT DS824_LON DS824_STAGE DS824_WIND DS824_PRES TD9636_LAT TD9636_LON TD9636_STAGE TD9636_WIND TD9636_PRES TD9635_LAT TD9635_LON TD9635_WIND TD9635_PRES TD9635_ROCI NEUMANN_LAT NEUMANN_LON NEUMANN_CLASS NEUMANN_WIND NEUMANN_PRES MLC_LAT MLC_LON MLC_CLASS MLC_WIND MLC_PRES USA_GUST BOM_GUST BOM_GUST_PER REUNION_GUST REUNION_GUST_PER USA_SEAHGT USA_SEARAD_NE USA_SEARAD_SE USA_SEARAD_SW USA_SEARAD_NW STORM_SPEED STORM_DIR
1946029S18118 1946 8 SI WA NOT_NAMED 1946-01-28 23:00:00 NR -18.3000 118.100 main 227 217 __________O___ -1 -18.3000 118.100 7 5 0
1946029S18118 1946 8 SI WA NOT_NAMED 1946-01-29 00:00:00 TS -18.3817 118.105 main 217 197 O________OP___ jtwc_sh SH091946 -18.4000 118.100 -1 -18.4000 118.100 TC -18.3633 118.110 7 18 97
1946029S18118 1946 8 SI WA NOT_NAMED 1946-01-29 01:00:00 TS -18.3692 118.730 1002 bom main 194 191 P_____O__PP___ SH091946 -18.4435 118.121 -1 -17.9000 123.000 1002 -18.4435 118.121 TC -18.4264 118.120 7 15 94
1946029S18118 1946 8 SI WA NOT_NAMED 1946-01-29 03:00:00 TS -18.4347 118.904 main 191 179 P_____P__PP___ SH091946 -18.5350 118.160 -1 -17.9007 122.665 1000 -18.5350 118.160 TC -18.5511 118.139 7 5 120
1946029S18118 1946 8 SI WA NOT_NAMED 1946-01-29 05:00:00 TS -18.5206 119.003 999 bom main 179 175 P_____O__PP___ SH091946 -18.6398 118.190 -1 -18.0000 122.300 999 -18.6398 118.190 TC -18.6725 118.158 7 9 104
1946029S18118 1946 8 SI WA NOT_NAMED 1946-01-29 06:00:00 TS -18.5400 119.339 main 175 144 O_____P__OP___ jtwc_sh SH091946 -18.7000 118.200 -1 -18.1135 122.099 -18.7000 118.200 TC -18.7315 118.166 7 6 137
1946029S18118 1946 8 SI WA NOT_NAMED 1946-01-29 09:00:00 TS -18.7985 119.277 main 144 123 P_____P__PP___ SH091946 -18.9075 118.208 -1 -18.6297 121.443 -18.9075 118.208 TC -18.8986 118.188 7 5 195
1946029S18118 1946 8 SI WA NOT_NAMED 1946-01-29 11:00:00 TS -18.9696 119.224 bom main 123 123 P_____O__PO___ SH091946 -19.0421 118.203 -1 -19.0000 121.000 -19.0421 118.203 TC -19.0000 118.200 7 5 194
1946029S18118 1946 8 SI WA NOT_NAMED 1946-01-29 12:00:00 TS -19.0323 119.222 main 123 100 O_____P__OP___ jtwc_sh SH091946 -19.1000 118.200 -1 -19.1228 120.780 -19.1000 118.200 TC -19.0472 118.204 7 5 225
1946029S18118 1946 8 SI WA NOT_NAMED 1946-01-29 15:00:00 TS -19.2111 118.969 main 101 88 P_____P__PP___ SH091946 -19.2000 118.207 -1 -19.4031 120.129 -19.2000 118.207 TC -19.1807 118.209 7 6 234
1946029S18118 1946 8 SI WA NOT_NAMED 1946-01-29 18:00:00 TS -19.3679 118.728 main 88 85 O_____P__OP___ jtwc_sh SH091946 -19.3000 118.200 -1 -19.5866 119.521 -19.3000 118.200 TC -19.3167 118.194 7 5 232
1946029S18118 1946 8 SI WA NOT_NAMED 1946-01-29 21:00:00 TS -19.5458 118.510 main 91 78 P_____P__PP___ SH091946 -19.4775 118.172 -1 -19.7198 118.998 -19.4775 118.172 TC -19.4740 118.150 7 5 227
1946029S18118 1946 8 SI WA NOT_NAMED 1946-01-29 23:00:00 TS -19.6756 118.376 main 78 78 P_____P__PO___ SH091946 -19.6224 118.131 -1 -19.8037 118.716 -19.6224 118.131 TC -19.6000 118.100 7 5 223
1946029S18118 1946 8 SI WA NOT_NAMED 1946-01-30 00:00:00 TS -19.7444 118.314 main 78 67 O_____P__OP___ jtwc_sh SH091946 -19.7000 118.100 -1 -19.8495 118.599 -19.7000 118.100 TC -19.6725 118.069 7 5 219
1946029S18118 1946 8 SI WA NOT_NAMED 1946-01-30 01:00:00 TS -19.8134 118.255 986 bom main 67 55 P_____O__PP___ SH091946 -19.7750 118.064 -1 -19.9000 118.500 986 -19.7750 118.064 TC -19.7496 118.034 7 5 216
1946029S18118 1946 8 SI WA NOT_NAMED 1946-01-30 03:00:00 TS -19.9623 118.146 main 44 24 P_____P__PP___ SH091946 -19.9350 117.972 -1 -20.0271 118.363 984 -19.9350 117.972 TC -19.9163 117.950 7 6 213
1946029S18118 1946 8 SI WA NOT_NAMED 1946-01-30 06:00:00 TS -20.2041 117.987 main 24 15 O_____P__OP___ jtwc_sh SH091946 -20.2000 117.800 -1 -20.2280 118.237 982 -20.2000 117.800 TC -20.1927 117.799 7 6 211
1946029S18118 1946 8 SI WA NOT_NAMED 1946-01-30 07:00:00 TS -20.2904 117.933 982 bom main 22 10 P_____O__PP___ SH091946 -20.2943 117.739 -1 -20.3000 118.200 982 4 -20.2943 117.739 TC -20.2904 117.743 7 6 211
1946029S18118 1946 8 SI WA NOT_NAMED 1946-01-30 09:00:00 TS -20.4723 117.816 main 10 10 P_____P__PP___ SH091946 -20.4925 117.607 -1 -20.4541 118.113 -20.4925 117.607 TC -20.4921 117.624 7 7 211
1946029S18118 1946 8 SI WA NOT_NAMED 1946-01-30 11:00:00 TS -20.6632 117.691 main 10 10 P_____P__PO___ SH091946 -20.6974 117.469 -1 -20.6205 118.011 -20.6974 117.469 TC -20.7000 117.500 7 7 212
1946029S18118 1946 8 SI WA NOT_NAMED 1946-01-30 12:00:00 TS -20.7580 117.624 main 0 0 O_____P__OP___ jtwc_sh SH091946 -20.8000 117.400 -1 -20.7079 117.954 -20.8000 117.400 TC -20.7919 117.427 7 7 214
1946029S18118 1946 8 SI WA NOT_NAMED 1946-01-30 15:00:00 TS -21.0432 117.416 main 0 0 P_____P__PP___ SH091946 -21.0925 117.192 -1 -20.9843 117.764 -21.0925 117.192 TC -21.0744 117.190 7 7 213
1946029S18118 1946 8 SI WA NOT_NAMED 1946-01-30 18:00:00 TS -21.3464 117.209 main 0 0 O_____P__OP___ jtwc_sh SH091946 -21.4000 117.000 -1 -21.2779 117.551 -21.4000 117.000 TC -21.3817 116.960 7 7 212
1946029S18118 1946 8 SI WA NOT_NAMED 1946-01-30 21:00:00 TS -21.6692 116.992 main 0 0 P_____P__PP___ SH091946 -21.7125 116.813 -1 -21.5834 117.321 -21.7125 116.813 TC -21.7326 116.776 7 8 210
1946029S18118 1946 8 SI WA NOT_NAMED 1946-01-30 23:00:00 TS -21.9191 116.849 main 0 0 P_____P__PO___ SH091946 -21.9579 116.725 -1 -21.7910 117.162 -21.9579 116.725 TC -22.0000 116.700 7 9 206
1946029S18118 1946 8 SI WA NOT_NAMED 1946-01-31 00:00:00 TS -22.0716 116.773 main 0 0 O_____P__OP___ jtwc_sh SH091946 -22.1000 116.700 -1 -21.8954 117.081 -22.1000 116.700 TC -22.1457 116.684 7 11 201
1946029S18118 1946 8 SI WA NOT_NAMED 1946-01-31 01:00:00 TS -22.2523 116.711 996 bom main 0 0 P_____O__PP___ SH091946 -22.2605 116.691 -1 -22.0000 117.000 996 -22.2605 116.691 TC -22.2990 116.679 7 11 185
1946029S18118 1946 8 SI WA NOT_NAMED 1946-01-31 03:00:00 TS -22.6219 116.707 main 0 0 P________PP___ SH091946 -22.6200 116.712 -1 -22.6200 116.712 TC -22.6258 116.696 7 11 175
1946029S18118 1946 8 SI WA NOT_NAMED 1946-01-31 06:00:00 TS -23.1854 116.793 main 0 0 O________OP___ jtwc_sh SH091946 -23.2000 116.800 -1 -23.2000 116.800 TC -23.1561 116.778 7 11 172
1946029S18118 1946 8 SI WA NOT_NAMED 1946-01-31 09:00:00 TS -23.7392 116.891 main 0 0 P________PP___ SH091946 -23.7500 116.885 -1 -23.7500 116.885 TC -23.7176 116.904 7 11 170
1946029S18118 1946 8 SI WA NOT_NAMED 1946-01-31 11:00:00 TS -24.1111 116.972 main 0 0 P________PO___ SH091946 -24.1167 116.958 -1 -24.1167 116.958 TC -24.1000 117.000 7 11 168
1946029S18118 1946 8 SI WA NOT_NAMED 1946-01-31 12:00:00 TS -24.2967 117.020 main 0 0 O________OP___ jtwc_sh SH091946 -24.3000 117.000 -1 -24.3000 117.000 TC -24.2917 117.049 7 12 166
1946029S18118 1946 8 SI WA NOT_NAMED 1946-01-31 15:00:00 TS -24.8584 117.170 main 0 0 P________PP___ SH091946 -24.8500 117.142 -1 -24.8500 117.142 TC -24.8667 117.197 7 12 166
1946029S18118 1946 8 SI WA NOT_NAMED 1946-01-31 18:00:00 TS -25.4250 117.328 main 0 0 O________OP___ jtwc_sh SH091946 -25.4000 117.300 -1 -25.4000 117.300 TC -25.4417 117.347 7 12 166
1946029S18118 1946 8 SI WA NOT_NAMED 1946-01-31 21:00:00 NR -26.0168 117.498 main 0 0 __________P___ SH091946 -1 TC -26.0168 117.498 7 12 166
1946029S18118 1946 8 SI WA NOT_NAMED 1946-01-31 23:00:00 NR -26.4000 117.600 main 0 __________O___ SH091946 -1 TC -26.4000 117.600 7 12 167

IBTrACS Databaseについて

本データベースは、米国NOAAが公開する1842年以降の世界の熱帯低気圧のベストトラックデータアーカイブInternational Best Track Archive for Climate Stewardship (IBTrACS)を、ウェブで閲覧しやすい形式に変換したものです。

最終更新日:2021-10-25